Time;durP1;ratioP1;P1;durP2;ratioP2;P2;SDS_P1;SDS_P2;PMS_P1;PMS_P2;Temp;Humidity;BMP_temperature;BMP_pressure;BME280_temperature;BME280_humidity;BME280_pressure;Samples;Min_cycle;Max_cycle;Signal;HPM_P1;HPM_P2
2023/01/01 00:01:04;;;;;;;;;;;0.80;99.90;;;;;;5096138;28;19954;-75
2023/01/01 00:03:30;;;;;;;;;;;0.80;99.90;;;;;;5096170;28;20071;-75
2023/01/01 00:05:55;;;;;;;;;;;0.80;99.90;;;;;;5096040;28;20314;-75
2023/01/01 00:08:21;;;;;;;;;;;0.80;99.90;;;;;;5077722;28;19912;-75
2023/01/01 00:10:47;;;;;;;;;;;0.80;99.90;;;;;;5097150;28;20011;-76
2023/01/01 00:13:13;;;;;;;;;;;0.70;99.90;;;;;;5078267;28;19912;-75
2023/01/01 00:15:40;;;;;;;;;;;0.70;99.90;;;;;;5096277;28;19908;-75
2023/01/01 00:18:05;;;;;;;;;;;0.70;99.90;;;;;;5095421;28;20253;-76
2023/01/01 00:20:31;;;;;;;;;;;0.70;99.90;;;;;;5077193;28;19920;-75
2023/01/01 00:22:56;;;;;;;;;;;0.70;99.90;;;;;;5095637;28;19912;-76
2023/01/01 00:25:23;;;;;;;;;;;0.60;99.90;;;;;;5095541;28;19935;-75
2023/01/01 00:27:48;;;;;;;;;;;0.50;99.90;;;;;;5077399;28;20272;-75
2023/01/01 00:30:14;;;;;;;;;;;0.50;99.90;;;;;;5095403;28;19912;-75
2023/01/01 00:32:40;;;;;;;;;;;0.50;99.90;;;;;;5095543;28;19908;-75
2023/01/01 00:35:05;;;;;;;;;;;0.50;99.90;;;;;;5076992;28;19915;-75
2023/01/01 00:37:31;;;;;;;;;;;0.50;99.90;;;;;;5095139;28;19920;-75
2023/01/01 00:39:56;;;;;;;;;;;0.50;99.90;;;;;;5077207;28;19919;-75
2023/01/01 00:42:22;;;;;;;;;;;0.50;99.90;;;;;;5077362;28;19956;-76
2023/01/01 00:44:48;;;;;;;;;;;0.60;99.90;;;;;;5088593;28;19913;-75
2023/01/01 00:47:13;;;;;;;;;;;0.60;99.90;;;;;;5077033;28;19994;-75
2023/01/01 00:49:39;;;;;;;;;;;0.50;99.90;;;;;;5076172;28;19912;-75
2023/01/01 00:52:04;;;;;;;;;;;0.50;99.90;;;;;;5094598;28;20399;-76
2023/01/01 00:54:30;;;;;;;;;;;0.50;99.90;;;;;;5076479;28;19967;-76
2023/01/01 00:56:56;;;;;;;;;;;0.50;99.90;;;;;;5094286;28;19916;-75
2023/01/01 00:59:22;;;;;;;;;;;0.50;99.90;;;;;;5096712;28;19912;-77
2023/01/01 01:01:48;;;;;;;;;;;0.50;99.90;;;;;;5078033;28;20260;-77
2023/01/01 01:04:13;;;;;;;;;;;0.40;99.90;;;;;;5094946;28;19919;-77
2023/01/01 01:06:39;;;;;;;;;;;0.40;99.90;;;;;;5095088;28;19926;-77
2023/01/01 01:09:06;;;;;;;;;;;0.50;99.90;;;;;;5077209;28;19912;-77
2023/01/01 01:11:31;;;;;;;;;;;0.60;99.90;;;;;;5076703;28;19958;-76
2023/01/01 01:13:57;;;;;;;;;;;0.60;99.90;;;;;;5094852;28;19908;-76
2023/01/01 01:16:25;;;;;;;;;;;0.70;99.90;;;;;;5094628;28;20257;-76
2023/01/01 01:18:51;;;;;;;;;;;0.70;99.90;;;;;;5094774;28;20342;-76
2023/01/01 01:21:19;;;;;;;;;;;0.80;99.90;;;;;;5095122;28;19961;-77
2023/01/01 01:23:44;;;;;;;;;;;0.80;99.90;;;;;;5094684;28;20011;-77
2023/01/01 01:26:14;;;;;;;;;;;0.90;99.90;;;;;;5094576;28;20391;-77
2023/01/01 01:28:40;;;;;;;;;;;1.00;99.90;;;;;;5094867;28;19931;-76
2023/01/01 01:31:06;;;;;;;;;;;1.00;99.90;;;;;;5076178;28;20348;-77
2023/01/01 01:33:31;;;;;;;;;;;1.10;99.90;;;;;;5094531;28;19920;-76
2023/01/01 01:35:57;;;;;;;;;;;1.10;99.90;;;;;;5094208;28;20328;-77
2023/01/01 01:38:22;;;;;;;;;;;1.10;99.90;;;;;;5096067;28;19916;-76
2023/01/01 01:40:48;;;;;;;;;;;1.20;99.90;;;;;;5095328;28;19914;-76
2023/01/01 01:43:20;;;;;;;;;;;1.20;99.90;;;;;;5096426;28;20000;-76
2023/01/01 01:45:45;;;;;;;;;;;1.20;99.90;;;;;;5077902;28;19915;-76
2023/01/01 01:48:11;;;;;;;;;;;1.20;99.90;;;;;;5096560;28;19908;-76
2023/01/01 01:50:38;;;;;;;;;;;1.20;99.90;;;;;;5067213;28;19909;-76
2023/01/01 01:53:07;;;;;;;;;;;1.20;99.90;;;;;;5057948;28;19908;-76
2023/01/01 01:55:34;;;;;;;;;;;1.20;99.90;;;;;;5057433;28;19909;-76
2023/01/01 01:58:00;;;;;;;;;;;1.30;99.90;;;;;;5057442;28;19909;-76
2023/01/01 02:00:26;;;;;;;;;;;1.20;99.90;;;;;;5075453;28;20356;-76
2023/01/01 02:03:03;;;;;;;;;;;1.10;99.90;;;;;;5075232;28;19999;-76
2023/01/01 02:05:28;;;;;;;;;;;1.00;99.90;;;;;;5058268;28;19916;-76
2023/01/01 02:07:55;;;;;;;;;;;0.80;99.90;;;;;;5075689;28;20300;-76
2023/01/01 02:10:21;;;;;;;;;;;0.80;99.90;;;;;;5076773;28;19916;-76
2023/01/01 02:12:46;;;;;;;;;;;0.70;99.90;;;;;;5076396;28;20352;-76
2023/01/01 02:15:12;;;;;;;;;;;0.70;99.90;;;;;;5058153;28;19954;-76
2023/01/01 02:17:58;;;;;;;;;;;0.80;99.90;;;;;;5076308;28;19912;-76
2023/01/01 02:20:43;;;;;;;;;;;0.80;99.90;;;;;;5058018;28;20318;-76
2023/01/01 02:23:19;;;;;;;;;;;0.80;99.90;;;;;;5057641;28;19959;-76
2023/01/01 02:25:48;;;;;;;;;;;0.80;99.90;;;;;;5057892;28;19959;-76
2023/01/01 02:28:22;;;;;;;;;;;0.80;99.90;;;;;;5057527;28;20003;-76
2023/01/01 02:30:49;;;;;;;;;;;0.70;99.90;;;;;;5057659;28;19958;-77
2023/01/01 02:33:18;;;;;;;;;;;0.70;99.90;;;;;;5075589;28;19909;-77
2023/01/01 02:36:02;;;;;;;;;;;0.70;99.90;;;;;;5075087;28;19908;-77
2023/01/01 02:38:27;;;;;;;;;;;0.70;99.90;;;;;;5075468;28;19970;-76
2023/01/01 02:41:25;;;;;;;;;;;0.80;99.90;;;;;;5075253;28;19909;-76
2023/01/01 02:43:51;;;;;;;;;;;0.70;99.90;;;;;;5054455;28;19913;-76
2023/01/01 02:46:17;;;;;;;;;;;0.70;99.90;;;;;;5061903;28;19919;-76
2023/01/01 02:48:51;;;;;;;;;;;0.70;99.90;;;;;;5079677;28;20422;-76
2023/01/01 02:51:32;;;;;;;;;;;0.70;99.90;;;;;;5079952;28;19909;-76
2023/01/01 02:54:08;;;;;;;;;;;0.70;99.90;;;;;;5060938;28;19923;-76
2023/01/01 02:56:37;;;;;;;;;;;0.70;99.90;;;;;;5078709;28;19967;-76
2023/01/01 03:02:14;;;;;;;;;;;0.60;99.90;;;;;;5078999;28;19997;-76
2023/01/01 03:04:52;;;;;;;;;;;0.60;99.90;;;;;;5079739;28;19909;-76
2023/01/01 03:07:26;;;;;;;;;;;0.60;99.90;;;;;;5061904;28;19994;-76
2023/01/01 03:09:52;;;;;;;;;;;0.60;99.90;;;;;;5079938;28;19908;-76
2023/01/01 03:12:17;;;;;;;;;;;0.60;99.90;;;;;;5061905;28;19908;-76
2023/01/01 03:14:56;;;;;;;;;;;0.60;99.90;;;;;;5079431;28;19908;-76
2023/01/01 03:17:37;;;;;;;;;;;0.60;99.90;;;;;;5061571;28;20257;-76
2023/01/01 03:20:16;;;;;;;;;;;0.60;99.90;;;;;;5077863;28;20328;-76
2023/01/01 03:22:42;;;;;;;;;;;0.60;99.90;;;;;;5077558;28;20372;-76
2023/01/01 03:25:13;;;;;;;;;;;0.50;99.90;;;;;;5079145;28;19959;-77
2023/01/01 03:27:49;;;;;;;;;;;0.50;99.90;;;;;;5077195;28;20320;-76
2023/01/01 03:30:16;;;;;;;;;;;0.50;99.90;;;;;;5077482;28;19909;-76
2023/01/01 03:33:02;;;;;;;;;;;0.50;99.90;;;;;;5082875;28;20323;-76
2023/01/01 03:35:48;;;;;;;;;;;0.60;99.90;;;;;;5098719;28;19957;-76
2023/01/01 03:38:16;;;;;;;;;;;0.50;99.90;;;;;;5076361;28;19978;-76
2023/01/01 03:40:42;;;;;;;;;;;0.50;99.90;;;;;;5098012;28;19908;-76
2023/01/01 03:43:12;;;;;;;;;;;0.50;99.90;;;;;;5062790;28;19916;-76
2023/01/01 03:45:40;;;;;;;;;;;0.50;99.90;;;;;;5089889;28;19944;-77
2023/01/01 03:48:06;;;;;;;;;;;0.50;99.90;;;;;;5098372;28;19958;-76
2023/01/01 03:50:50;;;;;;;;;;;0.50;99.90;;;;;;5099117;28;19908;-76
2023/01/01 03:53:26;;;;;;;;;;;0.50;99.90;;;;;;5080245;28;19908;-76
2023/01/01 03:56:07;;;;;;;;;;;0.50;99.90;;;;;;5097249;28;19916;-76
2023/01/01 03:58:38;;;;;;;;;;;0.60;99.90;;;;;;5099211;28;19904;-76
2023/01/01 04:01:09;;;;;;;;;;;0.60;99.90;;;;;;5099417;28;19908;-76
2023/01/01 04:03:36;;;;;;;;;;;0.50;99.90;;;;;;5098712;28;20002;-76
2023/01/01 04:06:02;;;;;;;;;;;0.50;99.90;;;;;;5098520;28;19908;-76
2023/01/01 04:08:30;;;;;;;;;;;0.50;99.90;;;;;;5098315;28;20319;-76
2023/01/01 04:10:58;;;;;;;;;;;0.50;99.90;;;;;;5098585;28;20009;-76
2023/01/01 04:13:23;;;;;;;;;;;0.50;99.90;;;;;;5097988;28;19916;-76
2023/01/01 04:15:49;;;;;;;;;;;0.50;99.90;;;;;;5097461;28;19908;-76
2023/01/01 04:18:15;;;;;;;;;;;0.50;99.90;;;;;;5079917;28;19967;-76
2023/01/01 04:20:41;;;;;;;;;;;0.50;99.90;;;;;;5098002;28;19954;-76
2023/01/01 04:23:06;;;;;;;;;;;0.50;99.90;;;;;;5097673;28;19947;-76
2023/01/01 04:25:32;;;;;;;;;;;0.50;99.90;;;;;;5098215;28;20302;-76
2023/01/01 04:27:58;;;;;;;;;;;0.40;99.90;;;;;;5063138;28;19912;-76
2023/01/01 04:30:23;;;;;;;;;;;0.40;99.90;;;;;;5097775;28;19915;-76
2023/01/01 04:32:49;;;;;;;;;;;0.40;99.90;;;;;;5097756;28;19909;-76
2023/01/01 04:35:15;;;;;;;;;;;0.40;99.90;;;;;;5079329;28;19957;-76
2023/01/01 04:37:41;;;;;;;;;;;0.40;99.90;;;;;;5097555;28;19924;-76
2023/01/01 04:40:07;;;;;;;;;;;0.30;99.90;;;;;;5080014;28;19915;-76
2023/01/01 04:42:33;;;;;;;;;;;0.30;99.90;;;;;;5079214;28;19919;-75
2023/01/01 04:44:59;;;;;;;;;;;0.30;99.90;;;;;;5078791;28;20327;-76
2023/01/01 04:47:25;;;;;;;;;;;0.20;99.90;;;;;;5078857;28;20415;-76
2023/01/01 04:49:51;;;;;;;;;;;0.30;99.90;;;;;;5096968;28;19955;-76
2023/01/01 04:52:17;;;;;;;;;;;0.20;99.90;;;;;;5096547;28;19915;-76
2023/01/01 04:54:43;;;;;;;;;;;0.20;99.90;;;;;;5079472;28;19916;-76
2023/01/01 04:57:08;;;;;;;;;;;0.30;99.90;;;;;;5079194;28;19922;-76
2023/01/01 04:59:34;;;;;;;;;;;0.30;99.90;;;;;;5097436;28;19915;-76
2023/01/01 05:01:59;;;;;;;;;;;0.30;99.90;;;;;;5078920;28;19920;-77
2023/01/01 05:04:25;;;;;;;;;;;0.30;99.90;;;;;;5096529;28;20384;-76
2023/01/01 05:06:50;;;;;;;;;;;0.30;99.90;;;;;;5096572;28;20427;-76
2023/01/01 05:09:16;;;;;;;;;;;0.30;99.90;;;;;;5097007;28;19908;-76
2023/01/01 05:11:41;;;;;;;;;;;0.30;99.90;;;;;;5096293;28;19908;-76
2023/01/01 05:14:07;;;;;;;;;;;0.30;99.90;;;;;;5077839;28;20005;-76
2023/01/01 05:16:36;;;;;;;;;;;0.30;99.90;;;;;;5095670;28;19912;-76
2023/01/01 05:19:02;;;;;;;;;;;0.40;99.90;;;;;;5095861;28;19908;-76
2023/01/01 05:21:32;;;;;;;;;;;0.40;99.90;;;;;;5096083;28;19915;-76
2023/01/01 05:23:59;;;;;;;;;;;0.30;99.90;;;;;;5095228;28;19908;-77
2023/01/01 05:26:27;;;;;;;;;;;0.30;99.90;;;;;;5095405;28;19908;-76
2023/01/01 05:28:52;;;;;;;;;;;0.30;99.90;;;;;;5095708;28;19915;-76
2023/01/01 05:31:22;;;;;;;;;;;0.30;99.90;;;;;;5077094;28;20003;-76
2023/01/01 05:33:48;;;;;;;;;;;0.30;99.90;;;;;;5095864;28;19963;-76
2023/01/01 05:36:15;;;;;;;;;;;0.20;99.90;;;;;;5095295;28;20279;-76
2023/01/01 05:38:41;;;;;;;;;;;0.20;99.90;;;;;;5096202;28;19951;-76
2023/01/01 05:41:07;;;;;;;;;;;0.20;99.90;;;;;;5078139;28;19919;-76
2023/01/01 05:43:33;;;;;;;;;;;0.20;99.90;;;;;;5093064;28;20360;-76
2023/01/01 05:46:03;;;;;;;;;;;0.20;99.90;;;;;;5095056;28;19919;-76
2023/01/01 05:48:28;;;;;;;;;;;0.20;99.90;;;;;;5095289;28;20356;-76
2023/01/01 05:51:00;;;;;;;;;;;0.20;99.90;;;;;;5077502;28;19919;-76
2023/01/01 05:53:25;;;;;;;;;;;0.20;99.90;;;;;;5095204;28;20458;-76
2023/01/01 05:55:52;;;;;;;;;;;0.20;99.90;;;;;;5095970;28;19916;-76
2023/01/01 05:58:17;;;;;;;;;;;0.20;99.90;;;;;;5078306;28;19908;-76
2023/01/01 06:00:43;;;;;;;;;;;0.10;99.90;;;;;;5078362;28;19978;-76
2023/01/01 06:03:08;;;;;;;;;;;0.20;99.90;;;;;;5095699;28;20010;-76
2023/01/01 06:05:34;;;;;;;;;;;0.10;99.90;;;;;;5077263;28;19920;-77
2023/01/01 06:07:59;;;;;;;;;;;0.10;99.90;;;;;;5096032;28;19919;-76
2023/01/01 06:10:25;;;;;;;;;;;0.10;99.90;;;;;;5077743;28;19962;-76
2023/01/01 06:12:52;;;;;;;;;;;0.10;99.90;;;;;;5076056;28;19935;-76
2023/01/01 06:15:18;;;;;;;;;;;0.10;99.90;;;;;;5077377;28;19908;-77
2023/01/01 06:17:44;;;;;;;;;;;0.10;99.90;;;;;;5094332;28;19942;-76
2023/01/01 06:20:09;;;;;;;;;;;0.00;99.90;;;;;;5093898;28;19973;-76
2023/01/01 06:22:36;;;;;;;;;;;0.10;99.90;;;;;;5076849;28;20288;-77
2023/01/01 06:25:02;;;;;;;;;;;0.00;99.90;;;;;;5077737;28;19912;-76
2023/01/01 06:27:27;;;;;;;;;;;0.00;99.90;;;;;;5076171;28;19931;-76
2023/01/01 06:29:53;;;;;;;;;;;0.00;99.90;;;;;;5095102;28;19982;-76
2023/01/01 06:32:18;;;;;;;;;;;0.00;99.90;;;;;;5094848;28;19912;-76
2023/01/01 06:34:44;;;;;;;;;;;0.00;99.90;;;;;;5074504;28;19991;-76
2023/01/01 06:37:09;;;;;;;;;;;0.00;99.90;;;;;;5073860;28;20384;-76
2023/01/01 06:39:35;;;;;;;;;;;0.00;99.90;;;;;;5076379;28;19948;-76
2023/01/01 06:42:00;;;;;;;;;;;-0.10;99.90;;;;;;5095592;28;19916;-76
2023/01/01 06:44:26;;;;;;;;;;;-0.10;99.90;;;;;;5096457;28;19912;-76
2023/01/01 06:46:52;;;;;;;;;;;-0.10;99.90;;;;;;5083775;28;19920;-77
2023/01/01 06:49:17;;;;;;;;;;;-0.10;99.90;;;;;;5094510;28;20287;-76
2023/01/01 06:51:43;;;;;;;;;;;-0.10;99.90;;;;;;5094295;28;19912;-76
2023/01/01 06:54:09;;;;;;;;;;;-0.10;99.90;;;;;;5076830;28;20280;-77
2023/01/01 06:56:34;;;;;;;;;;;-0.20;99.90;;;;;;5060009;28;20287;-76
2023/01/01 06:59:00;;;;;;;;;;;-0.20;99.90;;;;;;5096645;28;19913;-77
2023/01/01 07:01:27;;;;;;;;;;;-0.20;99.90;;;;;;5096534;28;19913;-76
2023/01/01 07:03:54;;;;;;;;;;;-0.20;99.90;;;;;;5095292;28;19908;-76
2023/01/01 07:06:19;;;;;;;;;;;-0.10;99.90;;;;;;5095840;28;19908;-76
2023/01/01 07:08:45;;;;;;;;;;;-0.10;99.90;;;;;;5093907;28;20338;-76
2023/01/01 07:11:10;;;;;;;;;;;-0.20;99.90;;;;;;5093531;28;19916;-76
2023/01/01 07:13:36;;;;;;;;;;;-0.20;99.90;;;;;;5057347;28;20391;-76
2023/01/01 07:16:02;;;;;;;;;;;-0.30;99.90;;;;;;5093396;28;19920;-76
2023/01/01 07:18:27;;;;;;;;;;;-0.30;99.90;;;;;;5078086;28;19965;-76
2023/01/01 07:20:54;;;;;;;;;;;-0.30;99.90;;;;;;5096833;28;19919;-77
2023/01/01 07:23:20;;;;;;;;;;;-0.40;99.90;;;;;;5079221;28;19915;-77
2023/01/01 07:25:47;;;;;;;;;;;-0.40;99.90;;;;;;5076709;28;20007;-77
2023/01/01 07:28:13;;;;;;;;;;;-0.40;99.90;;;;;;5093781;28;19914;-77
2023/01/01 07:30:38;;;;;;;;;;;-0.40;99.90;;;;;;5096447;28;19912;-77
2023/01/01 07:33:04;;;;;;;;;;;-0.40;99.90;;;;;;5096811;28;19912;-77
2023/01/01 07:35:29;;;;;;;;;;;-0.40;99.90;;;;;;5078652;28;19912;-76
2023/01/01 07:37:55;;;;;;;;;;;-0.40;99.90;;;;;;5097037;28;19974;-76
2023/01/01 07:40:21;;;;;;;;;;;-0.40;99.90;;;;;;5097327;28;19999;-77
2023/01/01 07:42:46;;;;;;;;;;;-0.40;99.90;;;;;;5079311;28;19915;-77
2023/01/01 07:45:12;;;;;;;;;;;-0.40;99.90;;;;;;5096951;28;19998;-76
2023/01/01 07:47:38;;;;;;;;;;;-0.40;99.90;;;;;;5096523;28;19942;-76
2023/01/01 07:50:03;;;;;;;;;;;-0.40;99.90;;;;;;5078408;28;20378;-76
2023/01/01 07:52:29;;;;;;;;;;;-0.40;99.90;;;;;;5078394;28;19912;-76
2023/01/01 07:54:54;;;;;;;;;;;-0.40;99.90;;;;;;5096400;28;20260;-76
2023/01/01 07:57:20;;;;;;;;;;;-0.40;99.90;;;;;;5096267;28;19915;-76
2023/01/01 07:59:46;;;;;;;;;;;-0.40;99.90;;;;;;5096279;28;19912;-76
2023/01/01 08:02:11;;;;;;;;;;;-0.30;99.90;;;;;;5096345;28;20431;-77
2023/01/01 08:04:37;;;;;;;;;;;-0.40;99.90;;;;;;5096234;28;19954;-76
2023/01/01 08:07:03;;;;;;;;;;;-0.30;99.90;;;;;;5096117;28;19908;-76
2023/01/01 08:09:29;;;;;;;;;;;-0.30;99.90;;;;;;5096043;28;19968;-76
2023/01/01 08:11:57;;;;;;;;;;;-0.40;99.90;;;;;;5096366;28;19913;-76
2023/01/01 08:14:23;;;;;;;;;;;-0.30;99.90;;;;;;5078773;28;19981;-76
2023/01/01 08:16:49;;;;;;;;;;;-0.30;99.90;;;;;;5077833;28;19950;-76
2023/01/01 08:19:14;;;;;;;;;;;-0.30;99.90;;;;;;5096000;28;19912;-76
2023/01/01 08:21:40;;;;;;;;;;;-0.30;99.90;;;;;;5077740;28;19942;-76
2023/01/01 08:24:05;;;;;;;;;;;-0.30;99.90;;;;;;5096150;28;19943;-76
2023/01/01 08:26:32;;;;;;;;;;;-0.20;99.90;;;;;;5077572;28;19920;-76
2023/01/01 08:28:57;;;;;;;;;;;-0.20;99.90;;;;;;5096022;28;19912;-76
2023/01/01 08:31:23;;;;;;;;;;;-0.20;99.90;;;;;;5095987;28;19918;-76
2023/01/01 08:33:49;;;;;;;;;;;-0.20;99.90;;;;;;5095736;28;19915;-76
2023/01/01 08:36:15;;;;;;;;;;;-0.20;99.90;;;;;;5095650;28;19916;-76
2023/01/01 08:38:43;;;;;;;;;;;-0.10;99.90;;;;;;5095998;28;19909;-76
2023/01/01 08:41:09;;;;;;;;;;;-0.10;99.90;;;;;;5095449;28;19944;-76
2023/01/01 08:43:34;;;;;;;;;;;-0.10;99.90;;;;;;5077407;28;20398;-76
2023/01/01 08:46:00;;;;;;;;;;;0.00;99.90;;;;;;5095566;28;19916;-75
2023/01/01 08:48:26;;;;;;;;;;;0.00;99.90;;;;;;5095377;28;19908;-76
2023/01/01 08:50:55;;;;;;;;;;;0.10;99.90;;;;;;5095669;28;19919;-76
2023/01/01 08:53:21;;;;;;;;;;;0.20;99.90;;;;;;5095304;28;19999;-76
2023/01/01 08:55:56;;;;;;;;;;;0.20;99.90;;;;;;5077040;28;19939;-76
2023/01/01 08:58:21;;;;;;;;;;;0.30;99.90;;;;;;5095216;28;19919;-76
2023/01/01 09:00:47;;;;;;;;;;;0.40;99.90;;;;;;5095177;28;19912;-75
2023/01/01 09:03:12;;;;;;;;;;;0.50;99.90;;;;;;5076986;28;19920;-76
2023/01/01 09:05:38;;;;;;;;;;;0.60;99.90;;;;;;5095150;28;19912;-75
2023/01/01 09:08:04;;;;;;;;;;;0.70;99.90;;;;;;5094971;28;20413;-75
2023/01/01 09:10:29;;;;;;;;;;;0.80;99.90;;;;;;5095016;28;19912;-75
2023/01/01 09:12:55;;;;;;;;;;;0.80;99.90;;;;;;5076780;28;19956;-75
2023/01/01 09:15:20;;;;;;;;;;;0.90;99.90;;;;;;5094861;28;20364;-75
2023/01/01 09:17:46;;;;;;;;;;;1.00;99.90;;;;;;5094687;28;19924;-76
2023/01/01 09:20:11;;;;;;;;;;;1.10;99.90;;;;;;5094819;28;19921;-77
2023/01/01 09:22:37;;;;;;;;;;;1.20;99.90;;;;;;5094839;28;20006;-77
2023/01/01 09:25:03;;;;;;;;;;;1.30;99.90;;;;;;5076610;28;20410;-77
2023/01/01 09:27:28;;;;;;;;;;;1.40;99.90;;;;;;5094608;28;20311;-76
2023/01/01 09:29:54;;;;;;;;;;;1.40;99.90;;;;;;5094849;28;20271;-75
2023/01/01 09:32:19;;;;;;;;;;;1.50;99.90;;;;;;5094596;28;19912;-76
2023/01/01 09:34:45;;;;;;;;;;;1.50;99.90;;;;;;5094613;28;19913;-76
2023/01/01 09:37:11;;;;;;;;;;;1.50;99.90;;;;;;5076139;28;20384;-76
2023/01/01 09:39:36;;;;;;;;;;;1.60;99.90;;;;;;5076427;28;19913;-77
2023/01/01 09:42:22;;;;;;;;;;;1.70;99.90;;;;;;5094401;28;19908;-76
2023/01/01 09:45:00;;;;;;;;;;;1.80;99.90;;;;;;5093904;28;19971;-77
2023/01/01 09:47:34;;;;;;;;;;;1.90;99.90;;;;;;5094310;28;20418;-76
2023/01/01 09:50:05;;;;;;;;;;;2.00;99.90;;;;;;5095433;28;19908;-76
2023/01/01 09:52:43;;;;;;;;;;;2.10;99.90;;;;;;5094424;28;19950;-76
2023/01/01 09:55:16;;;;;;;;;;;2.30;99.90;;;;;;5094208;28;19909;-76
2023/01/01 09:57:42;;;;;;;;;;;2.40;99.90;;;;;;5094315;28;19912;-76
2023/01/01 10:00:15;;;;;;;;;;;2.50;99.90;;;;;;5094618;28;20288;-76
2023/01/01 10:02:59;;;;;;;;;;;2.60;99.90;;;;;;5094350;28;19918;-76
2023/01/01 10:05:43;;;;;;;;;;;2.70;99.90;;;;;;5094518;28;19993;-76
2023/01/01 10:08:16;;;;;;;;;;;2.80;99.90;;;;;;5075917;28;19916;-76
2023/01/01 10:11:00;;;;;;;;;;;2.90;99.90;;;;;;5076201;28;19951;-76
2023/01/01 10:13:30;;;;;;;;;;;3.10;99.90;;;;;;5093998;28;19915;-75
2023/01/01 10:16:07;;;;;;;;;;;3.20;99.90;;;;;;5093819;28;19908;-76
2023/01/01 10:18:36;;;;;;;;;;;3.30;99.90;;;;;;5094509;28;19908;-76
2023/01/01 10:21:06;;;;;;;;;;;3.40;99.90;;;;;;5075810;28;20356;-75
2023/01/01 10:23:34;;;;;;;;;;;3.40;99.90;;;;;;5094486;28;19912;-76
2023/01/01 10:26:01;;;;;;;;;;;3.60;99.90;;;;;;5075775;28;19909;-76
2023/01/01 10:28:50;;;;;;;;;;;3.60;99.90;;;;;;5093817;28;20367;-76
2023/01/01 10:31:18;;;;;;;;;;;3.70;99.90;;;;;;5082786;28;19915;-75
2023/01/01 10:33:44;;;;;;;;;;;3.90;99.90;;;;;;5093761;28;19908;-76
2023/01/01 10:36:11;;;;;;;;;;;4.00;99.90;;;;;;5093493;28;19978;-76
2023/01/01 10:38:37;;;;;;;;;;;4.10;99.90;;;;;;5075528;28;19908;-76
2023/01/01 10:41:07;;;;;;;;;;;4.20;99.90;;;;;;5093758;28;19947;-76
2023/01/01 10:43:32;;;;;;;;;;;4.20;99.90;;;;;;5093507;28;20403;-76
2023/01/01 10:46:00;;;;;;;;;;;4.30;99.90;;;;;;5093538;28;19970;-76
2023/01/01 10:48:27;;;;;;;;;;;4.40;99.90;;;;;;5093985;28;20343;-76
2023/01/01 10:50:52;;;;;;;;;;;4.40;99.90;;;;;;5093641;28;20323;-76
2023/01/01 10:53:26;;;;;;;;;;;4.50;99.90;;;;;;5075485;28;19908;-76
2023/01/01 10:55:59;;;;;;;;;;;4.60;99.90;;;;;;5075263;28;19912;-77
2023/01/01 10:58:26;;;;;;;;;;;4.70;99.90;;;;;;5075265;28;19915;-76
2023/01/01 11:00:56;;;;;;;;;;;4.80;99.90;;;;;;5093445;28;20441;-76
2023/01/01 11:03:22;;;;;;;;;;;4.90;99.90;;;;;;5075310;28;19908;-76
2023/01/01 11:06:04;;;;;;;;;;;5.00;99.90;;;;;;5078553;28;19919;-76
2023/01/01 11:08:31;;;;;;;;;;;5.10;99.90;;;;;;5097514;28;20010;-76
2023/01/01 11:10:58;;;;;;;;;;;5.20;99.90;;;;;;5097268;28;19908;-76
2023/01/01 11:13:24;;;;;;;;;;;5.30;99.90;;;;;;5097218;28;19908;-76
2023/01/01 11:15:49;;;;;;;;;;;5.30;99.90;;;;;;5097296;28;20263;-76
2023/01/01 11:18:35;;;;;;;;;;;5.40;99.90;;;;;;5097306;28;19937;-76
2023/01/01 11:21:03;;;;;;;;;;;5.50;99.90;;;;;;5078611;28;20379;-76
2023/01/01 11:23:30;;;;;;;;;;;5.60;99.90;;;;;;5078957;28;19993;-76
2023/01/01 11:25:56;;;;;;;;;;;5.70;99.90;;;;;;5097256;28;20011;-76
2023/01/01 11:28:22;;;;;;;;;;;5.70;99.90;;;;;;5096924;28;20260;-76
2023/01/01 11:31:17;;;;;;;;;;;5.80;99.90;;;;;;5077917;28;19918;-76
2023/01/01 11:33:45;;;;;;;;;;;5.90;99.90;;;;;;5074868;28;19985;-76
2023/01/01 11:36:19;;;;;;;;;;;6.00;99.90;;;;;;5096336;28;19970;-76
2023/01/01 11:38:46;;;;;;;;;;;6.20;99.90;;;;;;5092906;28;20003;-76
2023/01/01 11:41:12;;;;;;;;;;;6.30;99.90;;;;;;5096610;28;19921;-76
2023/01/01 11:43:43;;;;;;;;;;;6.40;99.90;;;;;;5096623;28;20314;-76
2023/01/01 11:46:10;;;;;;;;;;;6.40;99.90;;;;;;5096151;28;20333;-76
2023/01/01 11:48:39;;;;;;;;;;;6.50;99.90;;;;;;5078466;28;19998;-75
2023/01/01 11:51:06;;;;;;;;;;;6.50;99.90;;;;;;5078315;28;19999;-75
2023/01/01 11:53:42;;;;;;;;;;;6.60;99.90;;;;;;5096798;28;19919;-75
2023/01/01 11:56:10;;;;;;;;;;;6.70;99.90;;;;;;5096179;28;19908;-75
2023/01/01 11:58:36;;;;;;;;;;;6.80;99.90;;;;;;5096381;28;20327;-75
2023/01/01 12:01:05;;;;;;;;;;;6.90;99.90;;;;;;5096327;28;19954;-75
2023/01/01 12:03:54;;;;;;;;;;;7.00;99.90;;;;;;5096250;28;19912;-75
2023/01/01 12:06:19;;;;;;;;;;;7.10;99.90;;;;;;5082507;28;19959;-75
2023/01/01 12:08:57;;;;;;;;;;;7.10;99.90;;;;;;5096226;28;19908;-76
2023/01/01 12:11:30;;;;;;;;;;;7.20;99.90;;;;;;5096123;28;19914;-75
2023/01/01 12:14:19;;;;;;;;;;;7.20;99.90;;;;;;5096027;28;19908;-76
2023/01/01 12:16:56;;;;;;;;;;;7.30;99.90;;;;;;5068204;28;19912;-76
2023/01/01 12:19:25;;;;;;;;;;;7.30;99.90;;;;;;5077853;28;19915;-75
2023/01/01 12:21:53;;;;;;;;;;;7.30;99.90;;;;;;5095975;28;19996;-76
2023/01/01 12:24:19;;;;;;;;;;;7.40;99.90;;;;;;5095835;28;19908;-75
2023/01/01 12:26:47;;;;;;;;;;;7.50;99.90;;;;;;5095728;28;19912;-75
2023/01/01 12:29:13;;;;;;;;;;;7.50;99.90;;;;;;5095781;28;19915;-75
2023/01/01 12:31:45;;;;;;;;;;;7.60;99.90;;;;;;5077572;28;20276;-75
2023/01/01 12:34:11;;;;;;;;;;;7.70;99.90;;;;;;5095741;28;19915;-75
2023/01/01 12:36:37;;;;;;;;;;;7.70;99.90;;;;;;5095665;28;19946;-75
2023/01/01 12:39:37;;;;;;;;;;;7.70;99.90;;;;;;5095606;28;20303;-76
2023/01/01 12:42:08;;;;;;;;;;;7.80;99.90;;;;;;5095512;28;19909;-75
2023/01/01 12:44:34;;;;;;;;;;;7.90;99.90;;;;;;5077379;28;19914;-76
2023/01/01 12:46:59;;;;;;;;;;;8.00;99.90;;;;;;5095314;28;19908;-76
2023/01/01 12:49:45;;;;;;;;;;;8.10;99.90;;;;;;5095396;28;19952;-75
2023/01/01 12:52:30;;;;;;;;;;;8.20;99.90;;;;;;5095303;28;19908;-75
2023/01/01 12:55:04;;;;;;;;;;;8.20;99.90;;;;;;5095621;28;20002;-75
2023/01/01 12:57:45;;;;;;;;;;;8.30;99.90;;;;;;5095083;28;19912;-75
2023/01/01 13:00:12;;;;;;;;;;;8.40;99.90;;;;;;5095146;28;19922;-76
2023/01/01 13:02:40;;;;;;;;;;;8.40;99.90;;;;;;5095131;28;20275;-76
2023/01/01 13:05:38;;;;;;;;;;;8.50;99.90;;;;;;5095103;28;19908;-76
2023/01/01 13:08:04;;;;;;;;;;;8.60;99.90;;;;;;5039334;28;19912;-76
2023/01/01 13:10:50;;;;;;;;;;;8.70;99.90;;;;;;5095383;28;20377;-76
2023/01/01 13:13:16;;;;;;;;;;;8.90;99.90;;;;;;5094014;28;19947;-76
2023/01/01 13:15:42;;;;;;;;;;;9.10;99.90;;;;;;5094946;28;19916;-76
2023/01/01 13:18:14;;;;;;;;;;;9.30;99.90;;;;;;5094748;28;19951;-76
2023/01/01 13:21:07;;;;;;;;;;;9.40;99.90;;;;;;5094801;28;19908;-76
2023/01/01 13:23:37;;;;;;;;;;;9.50;99.90;;;;;;5056590;28;19908;-76
2023/01/01 13:26:19;;;;;;;;;;;9.50;99.90;;;;;;5093077;28;19915;-76
2023/01/01 13:28:56;;;;;;;;;;;9.50;99.90;;;;;;5091333;28;19908;-76
2023/01/01 13:31:37;;;;;;;;;;;9.40;99.90;;;;;;5094556;28;20379;-75
2023/01/01 13:34:21;;;;;;;;;;;9.40;99.90;;;;;;5094294;28;19908;-76
2023/01/01 13:36:47;;;;;;;;;;;9.50;99.90;;;;;;5094236;28;19920;-76
2023/01/01 13:39:32;;;;;;;;;;;9.50;99.90;;;;;;5094962;28;19912;-76
2023/01/01 13:41:58;;;;;;;;;;;9.40;99.90;;;;;;5094282;28;20364;-76
2023/01/01 13:44:24;;;;;;;;;;;9.40;99.90;;;;;;5094696;28;19916;-76
2023/01/01 13:46:55;;;;;;;;;;;9.40;99.90;;;;;;5094605;28;19912;-76
2023/01/01 13:49:32;;;;;;;;;;;9.40;99.90;;;;;;5094314;28;19908;-76
2023/01/01 13:51:58;;;;;;;;;;;9.50;99.90;;;;;;5094581;28;20348;-75
2023/01/01 13:54:32;;;;;;;;;;;9.50;99.90;;;;;;5094539;28;19937;-76
2023/01/01 13:57:03;;;;;;;;;;;9.50;99.90;;;;;;5094432;28;19912;-76
2023/01/01 13:59:28;;;;;;;;;;;9.40;99.90;;;;;;5094178;28;19951;-76
2023/01/01 14:01:57;;;;;;;;;;;9.40;99.90;;;;;;5094140;28;19955;-76
2023/01/01 14:04:29;;;;;;;;;;;9.40;99.90;;;;;;5094437;28;19908;-76
2023/01/01 14:06:56;;;;;;;;;;;9.40;99.90;;;;;;5094260;28;20388;-75
2023/01/01 14:09:22;;;;;;;;;;;9.40;99.90;;;;;;5094336;28;19915;-76
2023/01/01 14:11:48;;;;;;;;;;;9.40;99.90;;;;;;5093999;28;19908;-76
2023/01/01 14:14:23;;;;;;;;;;;9.40;99.90;;;;;;5075813;28;20368;-76
2023/01/01 14:16:53;;;;;;;;;;;9.40;99.90;;;;;;5093902;28;20382;-76
2023/01/01 14:19:20;;;;;;;;;;;9.30;99.90;;;;;;5093822;28;19915;-75
2023/01/01 14:21:45;;;;;;;;;;;9.20;99.90;;;;;;5093877;28;19908;-76
2023/01/01 14:24:14;;;;;;;;;;;9.20;99.90;;;;;;5093805;28;20287;-76
2023/01/01 14:26:40;;;;;;;;;;;9.10;99.90;;;;;;5093698;28;19912;-75
2023/01/01 14:29:06;;;;;;;;;;;9.00;99.90;;;;;;5094128;28;20378;-75
2023/01/01 14:31:44;;;;;;;;;;;8.90;99.90;;;;;;5093697;28;20006;-75
2023/01/01 14:34:13;;;;;;;;;;;8.80;99.90;;;;;;5094116;28;19915;-75
2023/01/01 14:36:47;;;;;;;;;;;8.80;99.90;;;;;;5075368;28;20399;-75
2023/01/01 14:39:24;;;;;;;;;;;8.70;99.90;;;;;;5078500;28;19912;-75
2023/01/01 14:41:50;;;;;;;;;;;8.60;99.90;;;;;;5097918;28;19908;-75